Time;durP1;ratioP1;P1;durP2;ratioP2;P2;SDS_P1;SDS_P2;PMS_P1;PMS_P2;Temp;Humidity;BMP_temperature;BMP_pressure;BME280_temperature;BME280_humidity;BME280_pressure;Samples;Min_cycle;Max_cycle;Signal;HPM_P1;HPM_P2
2021/07/19 00:00:54;;;;;;;4.40;2.92;;;;;;;;;;4974547;28;20204;-89
2021/07/19 00:03:23;;;;;;;2.17;1.92;;;;;;;;;;4974746;28;20207;-89
2021/07/19 00:06:02;;;;;;;2.33;2.20;;;;;;;;;;4974959;28;20205;-89
2021/07/19 00:08:30;;;;;;;2.83;2.63;;;;;;;;;;4974877;28;20226;-89
2021/07/19 00:11:07;;;;;;;2.70;2.50;;;;;;;;;;4974926;28;20211;-89
2021/07/19 00:13:53;;;;;;;2.30;2.10;;;;;;;;;;4974836;28;20200;-90
2021/07/19 00:16:28;;;;;;;3.33;2.40;;;;;;;;;;4974797;28;20177;-89
2021/07/19 00:19:11;;;;;;;5.38;2.30;;;;;;;;;;4974618;28;20570;-90
2021/07/19 00:21:51;;;;;;;2.65;1.90;;;;;;;;;;4969873;28;20698;-89
2021/07/19 00:24:20;;;;;;;2.15;1.95;;;;;;;;;;4954921;29;20207;-88
2021/07/19 00:26:48;;;;;;;3.15;2.35;;;;;;;;;;4955374;28;20235;-89
2021/07/19 00:29:45;;;;;;;2.30;2.10;;;;;;;;;;4955179;29;20205;-89
2021/07/19 00:32:33;;;;;;;2.67;2.17;;;;;;;;;;4954856;29;20663;-90
2021/07/19 00:35:02;;;;;;;2.00;1.90;;;;;;;;;;4954736;29;20186;-89
2021/07/19 00:37:31;;;;;;;2.17;1.98;;;;;;;;;;4961421;28;20244;-89
2021/07/19 00:40:10;;;;;;;2.55;2.35;;;;;;;;;;4974338;28;20181;-88
2021/07/19 00:42:44;;;;;;;2.00;1.90;;;;;;;;;;4973752;28;20219;-88
2021/07/19 00:45:15;;;;;;;3.15;2.15;;;;;;;;;;4974214;28;20199;-89
2021/07/19 00:47:51;;;;;;;3.90;2.38;;;;;;;;;;4974510;28;20220;-89
2021/07/19 00:50:24;;;;;;;2.35;2.25;;;;;;;;;;4954692;29;20565;-89
2021/07/19 00:52:57;;;;;;;2.33;2.10;;;;;;;;;;4954778;29;20223;-89
2021/07/19 00:55:43;;;;;;;3.25;2.70;;;;;;;;;;4954308;29;20652;-88
2021/07/19 00:58:31;;;;;;;2.65;2.45;;;;;;;;;;4954837;28;20239;-89
2021/07/19 01:01:00;;;;;;;2.63;2.20;;;;;;;;;;4954162;29;20216;-89
2021/07/19 01:03:28;;;;;;;1.80;1.70;;;;;;;;;;4954053;28;20211;-90
2021/07/19 01:05:59;;;;;;;3.38;2.25;;;;;;;;;;4966516;28;20284;-89
2021/07/19 01:08:29;;;;;;;2.35;2.15;;;;;;;;;;4970360;28;20217;-89
2021/07/19 01:11:51;;;;;;;3.45;2.40;;;;;;;;;;4973714;28;20216;-89
2021/07/19 01:14:27;;;;;;;2.42;2.22;;;;;;;;;;4973147;28;20185;-88
2021/07/19 01:16:56;;;;;;;2.78;2.42;;;;;;;;;;4973011;28;20227;-89
2021/07/19 01:19:38;;;;;;;2.60;2.40;;;;;;;;;;4973195;28;20208;-89
2021/07/19 01:22:30;;;;;;;2.55;2.20;;;;;;;;;;4973066;28;20698;-88
2021/07/19 01:25:26;;;;;;;3.50;2.45;;;;;;;;;;4973131;28;20200;-90
2021/07/19 01:28:15;;;;;;;2.75;2.45;;;;;;;;;;4974892;28;20216;-89
2021/07/19 01:30:45;;;;;;;3.70;2.67;;;;;;;;;;4974918;28;20192;-89
2021/07/19 01:33:15;;;;;;;6.78;2.50;;;;;;;;;;4974934;28;20272;-88
2021/07/19 01:35:53;;;;;;;2.78;2.58;;;;;;;;;;4974855;28;20196;-89
2021/07/19 01:39:11;;;;;;;2.63;2.42;;;;;;;;;;4973260;28;20340;-89
2021/07/19 01:41:42;;;;;;;3.42;2.92;;;;;;;;;;4955346;29;20216;-88
2021/07/19 01:44:11;;;;;;;3.25;2.65;;;;;;;;;;4955304;29;20204;-88
2021/07/19 01:46:42;;;;;;;2.72;2.53;;;;;;;;;;4955252;28;20232;-89
2021/07/19 01:49:25;;;;;;;3.67;2.33;;;;;;;;;;4955114;29;20177;-88
2021/07/19 01:52:09;;;;;;;4.13;2.60;;;;;;;;;;4955121;29;20200;-89
2021/07/19 01:54:45;;;;;;;3.53;2.45;;;;;;;;;;4955201;28;20185;-89
2021/07/19 01:57:24;;;;;;;3.72;3.35;;;;;;;;;;4954977;28;20229;-89
2021/07/19 02:00:12;;;;;;;2.38;2.17;;;;;;;;;;4955218;29;20570;-89
2021/07/19 02:02:51;;;;;;;3.55;2.65;;;;;;;;;;4937531;29;20225;-89
2021/07/19 02:05:24;;;;;;;3.38;2.85;;;;;;;;;;4955111;29;20201;-88
2021/07/19 02:07:54;;;;;;;2.70;2.50;;;;;;;;;;4954807;28;20229;-88
2021/07/19 02:10:23;;;;;;;2.08;1.98;;;;;;;;;;4954585;29;20628;-89
2021/07/19 02:12:57;;;;;;;2.70;2.50;;;;;;;;;;4954815;29;20190;-89
2021/07/19 02:15:28;;;;;;;3.30;2.95;;;;;;;;;;4954576;29;20224;-90
2021/07/19 02:17:59;;;;;;;2.67;2.47;;;;;;;;;;4951074;29;20229;-87
2021/07/19 02:20:28;;;;;;;3.65;3.10;;;;;;;;;;4954576;29;20182;-88
2021/07/19 02:22:57;;;;;;;2.80;2.55;;;;;;;;;;4954386;29;20694;-86
2021/07/19 02:25:24;;;;;;;3.28;2.40;;;;;;;;;;4954853;29;20556;-88
2021/07/19 02:27:53;;;;;;;3.33;2.97;;;;;;;;;;4954168;29;20255;-87
2021/07/19 02:30:22;;;;;;;3.97;3.30;;;;;;;;;;4954125;29;20197;-87
2021/07/19 02:32:58;;;;;;;3.60;3.30;;;;;;;;;;4954931;28;20202;-87
2021/07/19 02:35:33;;;;;;;3.70;3.22;;;;;;;;;;4954244;28;20211;-87
2021/07/19 02:38:04;;;;;;;3.63;3.22;;;;;;;;;;4954417;28;20603;-87
2021/07/19 02:40:33;;;;;;;6.15;4.20;;;;;;;;;;4954210;29;20247;-87
2021/07/19 02:43:05;;;;;;;3.92;3.15;;;;;;;;;;4954305;29;20212;-86
2021/07/19 02:45:36;;;;;;;3.50;2.65;;;;;;;;;;4954480;29;20838;-88
2021/07/19 02:48:07;;;;;;;4.53;3.38;;;;;;;;;;4954542;28;20232;-88
2021/07/19 02:50:36;;;;;;;6.53;3.30;;;;;;;;;;4954499;29;20204;-87
2021/07/19 02:53:08;;;;;;;4.88;3.67;;;;;;;;;;4954619;29;20197;-88
2021/07/19 02:55:38;;;;;;;4.47;4.07;;;;;;;;;;4954266;29;20181;-87
2021/07/19 02:58:15;;;;;;;4.22;3.83;;;;;;;;;;4953924;28;20731;-88
2021/07/19 03:00:44;;;;;;;3.90;3.40;;;;;;;;;;4966061;28;20199;-87
2021/07/19 03:03:16;;;;;;;5.28;4.07;;;;;;;;;;4973037;28;20204;-87
2021/07/19 03:05:50;;;;;;;5.00;3.78;;;;;;;;;;4975339;28;20192;-87
2021/07/19 03:08:19;;;;;;;3.50;3.20;;;;;;;;;;4977513;28;20236;-87
2021/07/19 03:10:53;;;;;;;4.53;4.13;;;;;;;;;;4977228;28;20208;-86
2021/07/19 03:13:25;;;;;;;3.92;3.53;;;;;;;;;;4975995;28;20203;-87
2021/07/19 03:15:53;;;;;;;6.35;3.92;;;;;;;;;;4977208;28;20196;-87
2021/07/19 03:18:25;;;;;;;4.68;4.28;;;;;;;;;;4976988;28;20221;-88
2021/07/19 03:20:54;;;;;;;6.75;3.97;;;;;;;;;;4982519;28;20196;-88
2021/07/19 03:23:27;;;;;;;4.30;3.90;;;;;;;;;;4996338;28;20220;-88
2021/07/19 03:26:12;;;;;;;4.97;4.43;;;;;;;;;;4990167;28;20255;-89
2021/07/19 03:28:41;;;;;;;4.47;3.70;;;;;;;;;;4977165;28;20208;-88
2021/07/19 03:31:17;;;;;;;3.70;3.40;;;;;;;;;;4961099;28;20201;-87
2021/07/19 03:33:52;;;;;;;5.28;4.45;;;;;;;;;;4957849;29;20273;-88
2021/07/19 03:36:21;;;;;;;4.55;4.03;;;;;;;;;;4957722;28;20650;-88
2021/07/19 03:39:08;;;;;;;6.25;4.93;;;;;;;;;;4957362;29;20197;-88
2021/07/19 03:41:37;;;;;;;9.57;5.25;;;;;;;;;;4957609;29;20540;-88
2021/07/19 03:44:12;;;;;;;5.63;5.05;;;;;;;;;;4957264;29;20694;-88
2021/07/19 03:46:44;;;;;;;5.53;5.00;;;;;;;;;;4976265;28;20220;-88
2021/07/19 03:49:17;;;;;;;5.55;4.80;;;;;;;;;;4977000;28;20571;-88
2021/07/19 03:51:50;;;;;;;6.70;4.65;;;;;;;;;;4976418;28;20205;-87
2021/07/19 03:54:18;;;;;;;5.22;4.55;;;;;;;;;;4976213;28;20193;-88
2021/07/19 03:56:48;;;;;;;7.60;5.20;;;;;;;;;;4976392;28;20223;-88
2021/07/19 03:59:26;;;;;;;5.93;4.72;;;;;;;;;;4976543;28;20196;-90
2021/07/19 04:02:13;;;;;;;5.68;5.07;;;;;;;;;;4976521;28;20197;-88
2021/07/19 04:05:03;;;;;;;5.45;4.30;;;;;;;;;;4976274;28;20224;-89
2021/07/19 04:07:37;;;;;;;6.10;5.50;;;;;;;;;;4976433;28;20287;-88
2021/07/19 04:10:07;;;;;;;6.40;4.93;;;;;;;;;;4976326;28;20185;-88
2021/07/19 04:13:06;;;;;;;5.15;4.43;;;;;;;;;;4976007;28;20201;-88
2021/07/19 04:15:35;;;;;;;5.97;4.30;;;;;;;;;;4966323;28;20208;-88
2021/07/19 04:18:10;;;;;;;6.32;4.78;;;;;;;;;;4968765;28;20219;-88
2021/07/19 04:20:56;;;;;;;6.15;3.92;;;;;;;;;;4976239;28;20184;-88
2021/07/19 04:23:24;;;;;;;5.50;4.57;;;;;;;;;;4976160;28;20220;-88
2021/07/19 04:25:57;;;;;;;5.78;4.85;;;;;;;;;;4976192;28;20558;-88
2021/07/19 04:28:25;;;;;;;4.90;4.22;;;;;;;;;;4976168;28;20229;-88
2021/07/19 04:31:02;;;;;;;5.32;4.45;;;;;;;;;;4963613;28;20195;-88
2021/07/19 04:33:29;;;;;;;6.32;5.10;;;;;;;;;;4956744;29;20197;-88
2021/07/19 04:36:06;;;;;;;4.70;4.25;;;;;;;;;;4956779;29;20617;-88
2021/07/19 04:38:34;;;;;;;5.45;4.95;;;;;;;;;;4992628;23;20247;-89
2021/07/19 04:41:02;;;;;;;4.78;4.38;;;;;;;;;;4995105;28;20202;-89
2021/07/19 04:43:31;;;;;;;4.90;4.43;;;;;;;;;;4993794;28;20568;-89
2021/07/19 04:45:58;;;;;;;5.05;4.55;;;;;;;;;;4994826;28;20574;-90
2021/07/19 04:48:27;;;;;;;4.80;4.30;;;;;;;;;;4985208;28;20224;-89
2021/07/19 04:50:55;;;;;;;5.90;5.40;;;;;;;;;;4977500;28;20209;-89
2021/07/19 04:53:23;;;;;;;6.20;4.88;;;;;;;;;;4974385;28;20185;-89
2021/07/19 04:55:57;;;;;;;6.03;5.25;;;;;;;;;;4976320;28;20208;-88
2021/07/19 04:58:26;;;;;;;5.70;5.07;;;;;;;;;;4975912;28;20226;-88
2021/07/19 05:00:59;;;;;;;5.07;4.57;;;;;;;;;;4976031;28;20204;-90
2021/07/19 05:03:29;;;;;;;6.63;5.40;;;;;;;;;;4976820;28;20287;-90
2021/07/19 05:05:57;;;;;;;5.80;5.20;;;;;;;;;;4975944;28;20199;-89
2021/07/19 05:08:28;;;;;;;5.15;4.65;;;;;;;;;;4974181;28;20656;-90
2021/07/19 05:10:59;;;;;;;8.38;4.97;;;;;;;;;;4973875;28;20196;-90
2021/07/19 05:13:28;;;;;;;4.93;4.43;;;;;;;;;;4974088;28;20197;-89
2021/07/19 05:15:56;;;;;;;6.45;4.57;;;;;;;;;;4976279;28;20185;-89
2021/07/19 05:18:26;;;;;;;5.85;4.43;;;;;;;;;;4974446;28;20221;-89
2021/07/19 05:20:54;;;;;;;5.63;4.22;;;;;;;;;;4974943;28;20205;-89
2021/07/19 05:23:26;;;;;;;6.05;5.50;;;;;;;;;;4974508;28;20673;-89
2021/07/19 05:25:56;;;;;;;5.32;4.20;;;;;;;;;;4974148;28;20252;-89
2021/07/19 05:28:24;;;;;;;5.10;4.60;;;;;;;;;;4974142;28;20228;-88
2021/07/19 05:30:54;;;;;;;5.55;4.30;;;;;;;;;;4974791;28;20185;-88
2021/07/19 05:33:25;;;;;;;5.63;4.90;;;;;;;;;;4975004;28;20245;-89
2021/07/19 05:36:06;;;;;;;8.35;5.88;;;;;;;;;;4975190;28;20295;-88
2021/07/19 05:38:36;;;;;;;7.05;4.63;;;;;;;;;;4974689;28;20270;-89
2021/07/19 05:41:11;;;;;;;4.88;4.43;;;;;;;;;;4974836;28;20208;-89
2021/07/19 05:44:00;;;;;;;4.80;4.25;;;;;;;;;;4973424;28;20188;-86
2021/07/19 05:46:28;;;;;;;4.32;3.92;;;;;;;;;;4974026;28;20206;-87
2021/07/19 05:49:03;;;;;;;5.10;4.60;;;;;;;;;;4973580;28;20189;-86
2021/07/19 05:51:36;;;;;;;4.53;3.80;;;;;;;;;;4973492;28;20187;-86
2021/07/19 05:54:05;;;;;;;9.30;3.88;;;;;;;;;;4972452;28;20208;-87
2021/07/19 05:56:33;;;;;;;4.00;3.28;;;;;;;;;;4972488;28;20196;-86
2021/07/19 05:59:01;;;;;;;5.30;4.15;;;;;;;;;;4973078;28;20214;-86
2021/07/19 06:01:31;;;;;;;5.88;5.15;;;;;;;;;;4972813;28;20655;-86
2021/07/19 06:04:00;;;;;;;6.45;5.55;;;;;;;;;;4972308;28;20191;-86
2021/07/19 06:06:39;;;;;;;6.05;4.30;;;;;;;;;;4972539;28;20196;-86
2021/07/19 06:09:08;;;;;;;5.38;4.55;;;;;;;;;;4972606;28;20259;-86
2021/07/19 06:11:36;;;;;;;6.70;4.90;;;;;;;;;;4972768;28;20523;-85
2021/07/19 06:14:05;;;;;;;5.82;4.40;;;;;;;;;;4972018;28;20199;-85
2021/07/19 06:16:32;;;;;;;6.60;5.07;;;;;;;;;;4972044;28;20211;-86
2021/07/19 06:19:00;;;;;;;7.82;6.65;;;;;;;;;;4971063;28;20223;-86
2021/07/19 06:21:28;;;;;;;4.82;4.35;;;;;;;;;;4971721;28;20204;-86
2021/07/19 06:23:57;;;;;;;5.78;4.32;;;;;;;;;;4971133;28;20192;-86
2021/07/19 06:26:26;;;;;;;5.45;5.03;;;;;;;;;;4972544;28;20215;-85
2021/07/19 06:28:53;;;;;;;4.57;4.18;;;;;;;;;;4972594;28;20196;-86
2021/07/19 06:31:22;;;;;;;5.18;4.60;;;;;;;;;;4972386;28;20200;-87
2021/07/19 06:33:52;;;;;;;6.15;4.68;;;;;;;;;;4972161;28;20223;-86
2021/07/19 06:36:20;;;;;;;5.55;4.88;;;;;;;;;;4972285;28;20197;-86
2021/07/19 06:38:48;;;;;;;6.35;4.55;;;;;;;;;;4971372;28;20239;-86
2021/07/19 06:41:19;;;;;;;5.43;4.80;;;;;;;;;;4974797;28;20204;-87
2021/07/19 06:43:51;;;;;;;5.35;4.57;;;;;;;;;;4975833;28;20267;-87
2021/07/19 06:46:25;;;;;;;9.25;7.25;;;;;;;;;;4976543;28;20201;-86
2021/07/19 06:48:53;;;;;;;7.35;5.28;;;;;;;;;;4975646;28;20204;-85
2021/07/19 06:51:21;;;;;;;6.45;5.05;;;;;;;;;;4976074;28;20196;-87
2021/07/19 06:53:49;;;;;;;5.22;4.63;;;;;;;;;;4974795;28;20546;-86
2021/07/19 06:56:18;;;;;;;4.40;3.80;;;;;;;;;;4975560;28;20231;-86
2021/07/19 06:58:46;;;;;;;6.32;4.70;;;;;;;;;;4975698;28;20243;-85
2021/07/19 07:01:15;;;;;;;3.70;3.40;;;;;;;;;;4975739;28;20199;-86
2021/07/19 07:03:44;;;;;;;6.72;5.10;;;;;;;;;;4975968;28;20196;-86
2021/07/19 07:06:12;;;;;;;5.40;4.43;;;;;;;;;;4977131;28;20208;-87
2021/07/19 07:08:40;;;;;;;5.90;4.88;;;;;;;;;;4975703;28;20256;-87
2021/07/19 07:11:14;;;;;;;6.55;5.18;;;;;;;;;;4977166;28;20204;-86
2021/07/19 07:13:48;;;;;;;6.13;4.78;;;;;;;;;;4976581;28;20192;-86
2021/07/19 07:16:17;;;;;;;6.25;4.65;;;;;;;;;;4976874;28;20377;-86
2021/07/19 07:18:51;;;;;;;5.63;5.10;;;;;;;;;;4977135;28;20224;-87
2021/07/19 07:21:25;;;;;;;6.70;5.30;;;;;;;;;;4976667;28;20674;-87
2021/07/19 07:23:59;;;;;;;5.10;4.30;;;;;;;;;;4976959;28;20207;-87
2021/07/19 07:26:34;;;;;;;6.45;4.68;;;;;;;;;;4976546;28;20212;-87
2021/07/19 07:29:08;;;;;;;5.10;4.63;;;;;;;;;;4976607;28;20674;-87
2021/07/19 07:31:37;;;;;;;5.20;4.70;;;;;;;;;;4976690;28;20180;-87
2021/07/19 07:34:11;;;;;;;5.85;5.25;;;;;;;;;;4976843;28;20224;-87
2021/07/19 07:36:40;;;;;;;4.40;4.00;;;;;;;;;;4976889;28;20239;-87
2021/07/19 07:39:14;;;;;;;5.63;4.97;;;;;;;;;;4975972;28;20363;-86
2021/07/19 07:41:54;;;;;;;5.63;4.97;;;;;;;;;;4976682;28;20194;-87
2021/07/19 07:44:40;;;;;;;5.32;4.82;;;;;;;;;;4976286;28;20670;-86
2021/07/19 07:47:10;;;;;;;6.43;5.75;;;;;;;;;;4976136;28;20220;-88
2021/07/19 07:49:41;;;;;;;5.32;4.82;;;;;;;;;;4975927;28;20271;-86
2021/07/19 07:52:13;;;;;;;5.97;4.93;;;;;;;;;;4975175;28;20191;-87
2021/07/19 07:54:40;;;;;;;5.43;4.85;;;;;;;;;;4975908;28;20360;-87
2021/07/19 07:57:08;;;;;;;5.43;4.90;;;;;;;;;;4975347;28;20247;-87
2021/07/19 07:59:37;;;;;;;5.35;4.85;;;;;;;;;;4975843;28;20200;-86
2021/07/19 08:02:06;;;;;;;6.38;5.45;;;;;;;;;;4975904;28;20207;-87
2021/07/19 08:04:36;;;;;;;6.45;5.70;;;;;;;;;;4975409;28;20267;-86
2021/07/19 08:07:05;;;;;;;5.13;4.28;;;;;;;;;;4974788;28;20228;-86
2021/07/19 08:09:33;;;;;;;5.88;4.80;;;;;;;;;;4975054;28;20193;-86
2021/07/19 08:12:01;;;;;;;6.18;5.28;;;;;;;;;;4975927;28;20204;-86
2021/07/19 08:14:30;;;;;;;5.40;4.38;;;;;;;;;;4975866;28;20200;-87
2021/07/19 08:16:59;;;;;;;7.03;5.32;;;;;;;;;;4975745;28;20315;-87
2021/07/19 08:19:32;;;;;;;5.55;4.97;;;;;;;;;;4975703;28;20211;-88
2021/07/19 08:22:03;;;;;;;6.75;6.10;;;;;;;;;;4976123;28;20189;-86
2021/07/19 08:24:31;;;;;;;5.32;4.82;;;;;;;;;;4975816;28;20191;-87
2021/07/19 08:26:59;;;;;;;6.43;4.80;;;;;;;;;;4974785;28;20324;-87
2021/07/19 08:29:27;;;;;;;6.82;5.32;;;;;;;;;;4972147;28;20212;-87
2021/07/19 08:31:55;;;;;;;6.45;5.10;;;;;;;;;;4972727;28;20219;-87
2021/07/19 08:34:22;;;;;;;6.63;5.65;;;;;;;;;;4972653;28;20770;-86
2021/07/19 08:36:50;;;;;;;5.45;4.95;;;;;;;;;;4973012;28;20224;-86
2021/07/19 08:39:19;;;;;;;5.28;4.78;;;;;;;;;;4972296;28;20262;-86
2021/07/19 08:41:47;;;;;;;6.93;5.10;;;;;;;;;;4972678;28;20219;-87
2021/07/19 08:44:15;;;;;;;6.10;5.32;;;;;;;;;;4972575;28;20218;-87
2021/07/19 08:46:42;;;;;;;6.45;5.57;;;;;;;;;;4972320;28;20254;-88
2021/07/19 08:49:10;;;;;;;4.88;4.40;;;;;;;;;;4972122;28;20235;-86
2021/07/19 08:51:42;;;;;;;6.13;5.10;;;;;;;;;;4971898;28;20201;-86
2021/07/19 08:54:11;;;;;;;6.57;5.07;;;;;;;;;;4972057;28;20210;-86
2021/07/19 08:56:41;;;;;;;4.88;3.90;;;;;;;;;;4972022;28;20215;-88
2021/07/19 08:59:09;;;;;;;5.05;4.55;;;;;;;;;;4971965;28;20215;-87
2021/07/19 09:01:39;;;;;;;4.82;3.63;;;;;;;;;;4972179;28;20212;-87
2021/07/19 09:04:07;;;;;;;4.90;4.45;;;;;;;;;;4971211;28;20219;-87
2021/07/19 09:06:35;;;;;;;5.97;3.92;;;;;;;;;;4971743;28;20669;-87
2021/07/19 09:09:02;;;;;;;5.90;4.72;;;;;;;;;;4971944;28;20200;-87
2021/07/19 09:11:30;;;;;;;5.00;4.50;;;;;;;;;;4971898;28;20251;-87
2021/07/19 09:14:01;;;;;;;6.85;4.63;;;;;;;;;;4971737;28;20675;-87
2021/07/19 09:16:38;;;;;;;5.15;4.15;;;;;;;;;;4971533;28;20215;-87
2021/07/19 09:19:07;;;;;;;4.78;4.38;;;;;;;;;;4971425;28;20548;-87
2021/07/19 09:21:38;;;;;;;6.25;5.15;;;;;;;;;;4971924;28;20219;-86
2021/07/19 09:24:07;;;;;;;5.72;4.40;;;;;;;;;;4971651;28;20216;-88
2021/07/19 09:26:36;;;;;;;5.43;4.95;;;;;;;;;;4971333;28;20259;-87
2021/07/19 09:29:07;;;;;;;6.07;4.53;;;;;;;;;;4971658;28;20208;-87
2021/07/19 09:31:37;;;;;;;6.40;4.00;;;;;;;;;;4973109;28;20196;-87
2021/07/19 09:34:16;;;;;;;4.82;4.32;;;;;;;;;;4973891;28;20696;-87
2021/07/19 09:36:59;;;;;;;8.45;4.70;;;;;;;;;;4973455;28;20819;-87
2021/07/19 09:39:30;;;;;;;5.68;5.18;;;;;;;;;;4973812;28;20572;-88
2021/07/19 09:42:09;;;;;;;6.38;4.78;;;;;;;;;;4972124;28;20200;-87
2021/07/19 09:44:38;;;;;;;4.47;4.07;;;;;;;;;;4971419;28;20204;-88
2021/07/19 09:47:08;;;;;;;4.93;4.50;;;;;;;;;;4971358;28;20232;-88
2021/07/19 09:49:37;;;;;;;5.10;4.40;;;;;;;;;;4972029;28;20238;-88
2021/07/19 09:52:07;;;;;;;4.60;4.20;;;;;;;;;;4972250;28;20200;-89
2021/07/19 09:54:39;;;;;;;4.70;4.20;;;;;;;;;;4975408;28;20568;-89
2021/07/19 09:57:08;;;;;;;4.57;4.13;;;;;;;;;;4971453;28;20315;-89
2021/07/19 09:59:51;;;;;;;4.85;3.80;;;;;;;;;;4970827;28;20204;-89
2021/07/19 10:02:36;;;;;;;4.20;3.80;;;;;;;;;;4973497;28;20200;-88
2021/07/19 10:05:07;;;;;;;6.43;4.90;;;;;;;;;;4971226;28;20671;-88
2021/07/19 10:07:37;;;;;;;4.72;4.05;;;;;;;;;;4974093;28;20232;-89
2021/07/19 10:10:10;;;;;;;5.55;4.40;;;;;;;;;;4972615;28;20196;-87
2021/07/19 10:12:38;;;;;;;4.47;3.75;;;;;;;;;;4973825;28;20209;-87
2021/07/19 10:15:10;;;;;;;3.95;3.55;;;;;;;;;;4972575;28;20211;-88
2021/07/19 10:17:38;;;;;;;4.35;3.53;;;;;;;;;;4957294;28;20256;-86
2021/07/19 10:20:07;;;;;;;3.97;3.40;;;;;;;;;;4973429;28;20689;-88
2021/07/19 10:22:36;;;;;;;4.43;3.65;;;;;;;;;;4973421;28;20552;-87
2021/07/19 10:25:04;;;;;;;4.10;3.70;;;;;;;;;;4973557;28;20566;-88
2021/07/19 10:27:34;;;;;;;4.50;4.15;;;;;;;;;;4973225;28;20231;-87
2021/07/19 10:30:03;;;;;;;4.13;3.72;;;;;;;;;;4973233;28;20196;-87
2021/07/19 10:32:32;;;;;;;4.38;3.80;;;;;;;;;;4973620;28;20196;-88
2021/07/19 10:35:02;;;;;;;4.20;3.50;;;;;;;;;;4973069;28;20213;-87
2021/07/19 10:37:34;;;;;;;4.38;3.95;;;;;;;;;;4972654;28;20239;-87
2021/07/19 10:40:08;;;;;;;3.55;3.22;;;;;;;;;;4973077;28;20212;-88
2021/07/19 10:42:40;;;;;;;3.25;2.95;;;;;;;;;;4973021;28;20191;-88
2021/07/19 10:45:09;;;;;;;4.72;3.95;;;;;;;;;;4973290;28;20278;-87
2021/07/19 10:47:53;;;;;;;4.80;4.30;;;;;;;;;;4972803;28;20931;-87
2021/07/19 10:50:25;;;;;;;3.35;3.10;;;;;;;;;;4972894;28;20235;-87
2021/07/19 10:52:55;;;;;;;3.85;3.10;;;;;;;;;;4973442;28;20188;-87
2021/07/19 10:55:29;;;;;;;3.45;3.15;;;;;;;;;;4973094;28;20216;-86
2021/07/19 10:58:04;;;;;;;3.20;2.90;;;;;;;;;;4972370;28;20216;-87
2021/07/19 11:00:37;;;;;;;3.40;3.10;;;;;;;;;;4973158;28;20196;-87
2021/07/19 11:03:11;;;;;;;3.40;3.10;;;;;;;;;;4972860;28;20740;-87
2021/07/19 11:05:43;;;;;;;4.10;2.85;;;;;;;;;;4973127;28;20204;-87
2021/07/19 11:11:35;;;;;;;3.30;3.00;;;;;;;;;;4972200;28;20250;-85
2021/07/19 11:14:06;;;;;;;3.58;3.28;;;;;;;;;;4972837;28;20568;-87
2021/07/19 11:16:46;;;;;;;3.45;3.15;;;;;;;;;;4973483;28;20192;-87
2021/07/19 11:19:16;;;;;;;4.75;3.15;;;;;;;;;;4971366;28;20200;-87
2021/07/19 11:21:45;;;;;;;2.85;2.65;;;;;;;;;;4971048;28;20200;-86
2021/07/19 11:24:19;;;;;;;3.17;2.88;;;;;;;;;;4972862;28;20181;-88
2021/07/19 11:26:56;;;;;;;3.38;3.03;;;;;;;;;;4974740;28;20225;-86
2021/07/19 11:29:29;;;;;;;3.22;2.85;;;;;;;;;;4976771;28;20630;-87
2021/07/19 11:32:13;;;;;;;4.07;3.67;;;;;;;;;;4976828;28;20188;-86
2021/07/19 11:34:47;;;;;;;4.68;3.42;;;;;;;;;;4976085;28;20263;-86
2021/07/19 11:37:17;;;;;;;3.90;3.60;;;;;;;;;;4976003;28;20220;-86
2021/07/19 11:39:55;;;;;;;3.42;3.13;;;;;;;;;;4976984;28;20215;-86
2021/07/19 11:42:30;;;;;;;3.80;3.47;;;;;;;;;;4976923;28;20193;-85
2021/07/19 11:45:15;;;;;;;3.20;2.90;;;;;;;;;;4976501;28;20192;-87
2021/07/19 11:47:48;;;;;;;3.85;3.10;;;;;;;;;;4976009;28;20235;-86
2021/07/19 11:50:20;;;;;;;3.22;2.92;;;;;;;;;;4976581;28;20215;-86
2021/07/19 11:52:59;;;;;;;3.00;2.80;;;;;;;;;;4976046;28;20232;-86
2021/07/19 11:55:28;;;;;;;3.20;2.90;;;;;;;;;;4976611;28;20291;-86
2021/07/19 11:58:01;;;;;;;10.90;8.88;;;;;;;;;;4976038;28;20721;-86
2021/07/19 12:00:38;;;;;;;5.22;4.72;;;;;;;;;;4976460;28;20192;-86
2021/07/19 12:03:10;;;;;;;3.95;3.28;;;;;;;;;;4976032;28;20232;-86
2021/07/19 12:05:54;;;;;;;3.92;3.40;;;;;;;;;;4976344;28;20200;-86
2021/07/19 12:08:36;;;;;;;3.60;3.30;;;;;;;;;;4975681;28;20239;-86
2021/07/19 12:11:14;;;;;;;3.60;3.30;;;;;;;;;;4975787;28;20208;-85
2021/07/19 12:13:44;;;;;;;3.50;3.20;;;;;;;;;;4968858;28;20212;-85
2021/07/19 12:16:13;;;;;;;4.75;3.28;;;;;;;;;;4970254;28;20255;-84
2021/07/19 12:18:43;;;;;;;4.38;3.45;;;;;;;;;;4975661;28;20220;-84
2021/07/19 12:21:15;;;;;;;3.35;3.05;;;;;;;;;;4972084;28;20211;-85
2021/07/19 12:23:44;;;;;;;3.25;2.95;;;;;;;;;;4975983;28;20643;-86
2021/07/19 12:26:17;;;;;;;4.80;3.17;;;;;;;;;;4975984;28;20199;-86
2021/07/19 12:28:59;;;;;;;3.60;3.30;;;;;;;;;;4975683;28;20232;-86
2021/07/19 12:31:31;;;;;;;3.63;3.33;;;;;;;;;;4975808;28;20192;-85
2021/07/19 12:34:07;;;;;;;4.22;3.42;;;;;;;;;;4975575;28;20659;-86
2021/07/19 12:36:37;;;;;;;3.40;3.20;;;;;;;;;;4975678;28;20559;-86
2021/07/19 12:39:14;;;;;;;4.20;3.60;;;;;;;;;;4974171;28;20898;-86
2021/07/19 12:41:44;;;;;;;3.70;3.40;;;;;;;;;;4975404;28;20196;-86
2021/07/19 12:44:13;;;;;;;3.75;3.40;;;;;;;;;;4975169;28;20210;-86
2021/07/19 12:46:48;;;;;;;3.00;2.80;;;;;;;;;;4975884;28;20219;-85
2021/07/19 12:49:27;;;;;;;2.88;2.67;;;;;;;;;;4975503;28;20212;-86
2021/07/19 12:52:05;;;;;;;3.90;3.50;;;;;;;;;;4956958;28;20189;-87
2021/07/19 12:54:33;;;;;;;4.32;3.50;;;;;;;;;;4975299;28;20207;-85
2021/07/19 12:57:05;;;;;;;3.65;3.25;;;;;;;;;;4975226;28;20267;-86
2021/07/19 12:59:36;;;;;;;4.65;3.95;;;;;;;;;;4975215;28;20203;-85
2021/07/19 13:02:18;;;;;;;3.30;3.00;;;;;;;;;;4975312;28;20192;-87
2021/07/19 13:04:53;;;;;;;3.88;3.58;;;;;;;;;;4956337;29;20715;-85
2021/07/19 13:07:33;;;;;;;4.15;3.75;;;;;;;;;;4956308;28;20233;-87
2021/07/19 13:10:10;;;;;;;4.07;2.83;;;;;;;;;;4955333;29;20783;-87
2021/07/19 13:12:48;;;;;;;3.60;3.30;;;;;;;;;;4955864;29;20189;-86
2021/07/19 13:15:20;;;;;;;3.45;3.15;;;;;;;;;;4955643;29;20181;-86
2021/07/19 13:18:03;;;;;;;4.05;3.75;;;;;;;;;;4959934;28;20252;-86
2021/07/19 13:20:40;;;;;;;3.30;3.00;;;;;;;;;;4975214;28;20203;-86
2021/07/19 13:23:19;;;;;;;3.80;3.50;;;;;;;;;;4975056;28;20196;-85
2021/07/19 13:25:50;;;;;;;4.00;3.63;;;;;;;;;;4975143;28;20547;-86
2021/07/19 13:28:22;;;;;;;3.53;3.22;;;;;;;;;;4974518;28;20228;-86
2021/07/19 13:30:53;;;;;;;4.13;3.60;;;;;;;;;;4974921;28;20212;-86
2021/07/19 13:33:24;;;;;;;4.45;3.97;;;;;;;;;;4974845;28;20215;-85
2021/07/19 13:35:55;;;;;;;3.97;3.65;;;;;;;;;;4974563;28;20196;-86
2021/07/19 13:38:44;;;;;;;3.92;3.63;;;;;;;;;;4974377;28;20228;-86
2021/07/19 13:41:16;;;;;;;3.53;3.22;;;;;;;;;;4974850;28;20197;-86
2021/07/19 13:44:02;;;;;;;4.38;3.45;;;;;;;;;;4974681;28;20185;-85
2021/07/19 13:46:30;;;;;;;4.15;3.85;;;;;;;;;;4974026;28;20188;-86
2021/07/19 13:48:58;;;;;;;4.07;3.58;;;;;;;;;;4973857;28;20223;-86
2021/07/19 13:51:32;;;;;;;4.10;3.70;;;;;;;;;;4974140;28;20204;-85
2021/07/19 13:54:07;;;;;;;5.75;4.57;;;;;;;;;;4974438;28;20214;-85
2021/07/19 13:56:36;;;;;;;3.67;3.38;;;;;;;;;;4974279;28;20176;-86
2021/07/19 13:59:12;;;;;;;5.97;4.75;;;;;;;;;;4974234;28;20200;-87
2021/07/19 14:01:50;;;;;;;3.40;3.10;;;;;;;;;;4974288;28;20650;-88
2021/07/19 14:04:18;;;;;;;4.30;3.90;;;;;;;;;;4974555;28;20189;-87
2021/07/19 14:06:55;;;;;;;5.72;4.30;;;;;;;;;;4974118;28;20664;-87
2021/07/19 14:10:28;;;;;;;9.95;5.32;;;;;;;;;;4974194;28;20256;-87
2021/07/19 14:13:37;;;;;;;4.65;4.03;;;;;;;;;;4974309;28;20188;-87
2021/07/19 14:16:32;;;;;;;4.55;4.15;;;;;;;;;;4974151;28;20188;-87
2021/07/19 14:19:06;;;;;;;4.63;4.22;;;;;;;;;;4974047;28;20662;-87
2021/07/19 14:21:39;;;;;;;6.03;5.43;;;;;;;;;;4974247;28;20188;-87
2021/07/19 14:24:07;;;;;;;6.43;5.50;;;;;;;;;;4974073;28;20655;-86
2021/07/19 14:26:49;;;;;;;5.78;4.80;;;;;;;;;;4973700;28;20275;-86
2021/07/19 14:29:19;;;;;;;6.05;5.35;;;;;;;;;;4974186;28;20290;-85
2021/07/19 14:31:53;;;;;;;5.88;4.53;;;;;;;;;;4973898;28;20646;-86
2021/07/19 14:34:29;;;;;;;4.95;4.45;;;;;;;;;;4972700;28;20282;-86
2021/07/19 14:36:57;;;;;;;4.90;4.47;;;;;;;;;;4954772;28;20235;-86
2021/07/19 14:39:25;;;;;;;7.18;5.15;;;;;;;;;;4971632;28;20236;-85
2021/07/19 14:41:53;;;;;;;5.35;4.85;;;;;;;;;;4973184;28;20230;-85
2021/07/19 14:44:24;;;;;;;5.68;5.18;;;;;;;;;;4973058;28;20199;-85
2021/07/19 14:46:53;;;;;;;5.03;4.53;;;;;;;;;;4973281;28;20814;-86
2021/07/19 14:49:26;;;;;;;5.78;5.05;;;;;;;;;;4973696;28;20204;-86
2021/07/19 14:51:59;;;;;;;5.65;5.07;;;;;;;;;;4973956;28;20203;-85
2021/07/19 14:54:31;;;;;;;4.38;4.07;;;;;;;;;;4973387;28;20204;-86
2021/07/19 14:57:12;;;;;;;4.97;4.57;;;;;;;;;;4973676;28;20315;-86
2021/07/19 14:59:50;;;;;;;5.78;5.28;;;;;;;;;;4974088;28;20219;-85
2021/07/19 15:02:19;;;;;;;5.20;4.70;;;;;;;;;;4975463;28;20212;-87
2021/07/19 15:04:49;;;;;;;6.15;5.32;;;;;;;;;;4977720;28;20188;-86
2021/07/19 15:07:16;;;;;;;5.10;4.60;;;;;;;;;;4976850;28;20220;-87
2021/07/19 15:09:44;;;;;;;7.05;4.35;;;;;;;;;;4977274;28;20208;-86
2021/07/19 15:12:11;;;;;;;5.10;4.65;;;;;;;;;;4977322;28;20181;-85
2021/07/19 15:14:39;;;;;;;10.00;5.25;;;;;;;;;;4976982;28;20211;-84
2021/07/19 15:17:08;;;;;;;4.93;4.20;;;;;;;;;;4977049;28;20224;-86
2021/07/19 15:19:37;;;;;;;5.45;4.47;;;;;;;;;;4976876;28;20199;-86
2021/07/19 15:22:08;;;;;;;5.55;4.22;;;;;;;;;;4977002;28;20192;-87